sensor_id;sensor_type;location;lat;lon;timestamp;temperature;humidity
40556;DHT22;26250;45.422;11.100;2023-04-27T09:40:01;19.20;53.20
40556;DHT22;26250;45.422;11.100;2023-04-27T09:42:30;19.30;52.90
40556;DHT22;26250;45.422;11.100;2023-04-27T09:44:57;19.30;53.80
40556;DHT22;26250;45.422;11.100;2023-04-27T09:47:25;19.30;54.40
40556;DHT22;26250;45.422;11.100;2023-04-27T09:49:54;19.30;54.50
40556;DHT22;26250;45.422;11.100;2023-04-27T09:52:21;19.20;54.20
40556;DHT22;26250;45.422;11.100;2023-04-27T09:54:48;19.20;54.50
40556;DHT22;26250;45.422;11.100;2023-04-27T10:00:01;19.30;54.00
40556;DHT22;26250;45.422;11.100;2023-04-27T10:02:41;19.30;54.10
40556;DHT22;26250;45.422;11.100;2023-04-27T10:05:45;19.30;54.00
40556;DHT22;26250;45.422;11.100;2023-04-27T10:08:16;19.30;53.50
40556;DHT22;26250;45.422;11.100;2023-04-27T10:10:47;19.40;56.40
40556;DHT22;26250;45.422;11.100;2023-04-27T10:13:25;19.50;53.00
40556;DHT22;26250;45.422;11.100;2023-04-27T10:15:53;19.50;53.60
40556;DHT22;26250;45.422;11.100;2023-04-27T10:18:29;19.50;53.40
40556;DHT22;26250;45.422;11.100;2023-04-27T10:21:09;19.50;52.00
40556;DHT22;26250;45.422;11.100;2023-04-27T10:23:48;19.50;58.70
40556;DHT22;26250;45.422;11.100;2023-04-27T10:26:26;19.60;48.80
40556;DHT22;26250;45.422;11.100;2023-04-27T10:28:57;19.60;46.90
40556;DHT22;26250;45.422;11.100;2023-04-27T10:31:28;19.70;51.80
40556;DHT22;26250;45.422;11.100;2023-04-27T10:34:09;19.70;49.60
40556;DHT22;26250;45.422;11.100;2023-04-27T10:36:39;19.70;49.40
40556;DHT22;26250;45.422;11.100;2023-04-27T10:39:21;19.70;50.50
40556;DHT22;26250;45.422;11.100;2023-04-27T10:42:02;19.80;49.80
40556;DHT22;26250;45.422;11.100;2023-04-27T10:44:30;19.80;47.90
40556;DHT22;26250;45.422;11.100;2023-04-27T10:47:00;19.80;49.70
40556;DHT22;26250;45.422;11.100;2023-04-27T10:49:27;19.90;48.50
40556;DHT22;26250;45.422;11.100;2023-04-27T10:51:57;19.90;47.30
40556;DHT22;26250;45.422;11.100;2023-04-27T10:54:28;20.00;54.20
40556;DHT22;26250;45.422;11.100;2023-04-27T10:57:09;20.00;51.70
40556;DHT22;26250;45.422;11.100;2023-04-27T10:59:52;20.10;50.00
40556;DHT22;26250;45.422;11.100;2023-04-27T11:02:25;20.10;50.10
40556;DHT22;26250;45.422;11.100;2023-04-27T11:04:53;20.00;48.00
40556;DHT22;26250;45.422;11.100;2023-04-27T11:07:27;20.00;49.50
40556;DHT22;26250;45.422;11.100;2023-04-27T11:09:54;20.20;50.80
40556;DHT22;26250;45.422;11.100;2023-04-27T11:12:21;20.20;49.60
40556;DHT22;26250;45.422;11.100;2023-04-27T11:14:49;20.30;49.40
40556;DHT22;26250;45.422;11.100;2023-04-27T11:17:29;20.30;49.70
40556;DHT22;26250;45.422;11.100;2023-04-27T11:19:56;20.30;49.20
40556;DHT22;26250;45.422;11.100;2023-04-27T11:22:23;20.30;49.40
40556;DHT22;26250;45.422;11.100;2023-04-27T11:24:51;20.30;50.00
40556;DHT22;26250;45.422;11.100;2023-04-27T11:27:18;20.30;50.50
40556;DHT22;26250;45.422;11.100;2023-04-27T11:29:47;20.40;50.80
40556;DHT22;26250;45.422;11.100;2023-04-27T11:32:22;20.40;50.70
40556;DHT22;26250;45.422;11.100;2023-04-27T11:34:50;20.40;50.00
40556;DHT22;26250;45.422;11.100;2023-04-27T11:37:21;20.30;49.70
40556;DHT22;26250;45.422;11.100;2023-04-27T11:39:54;20.40;50.80
40556;DHT22;26250;45.422;11.100;2023-04-27T11:42:27;20.50;51.30
40556;DHT22;26250;45.422;11.100;2023-04-27T11:44:59;20.60;52.40
40556;DHT22;26250;45.422;11.100;2023-04-27T11:47:28;20.60;50.70
40556;DHT22;26250;45.422;11.100;2023-04-27T11:49:57;20.70;50.60
40556;DHT22;26250;45.422;11.100;2023-04-27T11:52:29;20.60;51.10
40556;DHT22;26250;45.422;11.100;2023-04-27T11:54:58;20.60;50.40
40556;DHT22;26250;45.422;11.100;2023-04-27T11:57:27;20.60;52.10
40556;DHT22;26250;45.422;11.100;2023-04-27T11:59:56;20.60;54.30
40556;DHT22;26250;45.422;11.100;2023-04-27T12:02:23;20.60;53.10
40556;DHT22;26250;45.422;11.100;2023-04-27T12:04:50;20.70;52.90
40556;DHT22;26250;45.422;11.100;2023-04-27T12:07:17;20.70;52.10
40556;DHT22;26250;45.422;11.100;2023-04-27T12:09:44;20.70;51.90
40556;DHT22;26250;45.422;11.100;2023-04-27T12:12:12;20.70;51.70
40556;DHT22;26250;45.422;11.100;2023-04-27T12:14:39;20.70;51.40
40556;DHT22;26250;45.422;11.100;2023-04-27T12:17:09;20.70;52.20
40556;DHT22;26250;45.422;11.100;2023-04-27T12:19:36;20.70;51.90
40556;DHT22;26250;45.422;11.100;2023-04-27T12:22:03;20.70;52.00
40556;DHT22;26250;45.422;11.100;2023-04-27T12:24:30;20.80;52.00
40556;DHT22;26250;45.422;11.100;2023-04-27T12:26:58;20.90;53.10
40556;DHT22;26250;45.422;11.100;2023-04-27T12:29:25;21.00;53.50
40556;DHT22;26250;45.422;11.100;2023-04-27T12:31:52;21.00;53.40
40556;DHT22;26250;45.422;11.100;2023-04-27T12:34:19;21.10;53.00
40556;DHT22;26250;45.422;11.100;2023-04-27T12:36:48;21.10;52.90
40556;DHT22;26250;45.422;11.100;2023-04-27T12:39:18;21.10;53.20
40556;DHT22;26250;45.422;11.100;2023-04-27T12:41:46;21.20;53.10
40556;DHT22;26250;45.422;11.100;2023-04-27T12:44:14;21.10;52.30
40556;DHT22;26250;45.422;11.100;2023-04-27T12:46:43;21.10;52.80
40556;DHT22;26250;45.422;11.100;2023-04-27T12:49:13;21.10;53.10
40556;DHT22;26250;45.422;11.100;2023-04-27T12:51:40;21.00;53.80
40556;DHT22;26250;45.422;11.100;2023-04-27T12:54:08;21.00;53.10
40556;DHT22;26250;45.422;11.100;2023-04-27T12:56:38;21.00;54.80
40556;DHT22;26250;45.422;11.100;2023-04-27T12:59:05;21.10;54.50
40556;DHT22;26250;45.422;11.100;2023-04-27T13:01:32;21.20;54.20
40556;DHT22;26250;45.422;11.100;2023-04-27T13:04:01;21.20;54.00
40556;DHT22;26250;45.422;11.100;2023-04-27T13:06:29;21.30;53.50
40556;DHT22;26250;45.422;11.100;2023-04-27T13:08:58;21.40;53.30
40556;DHT22;26250;45.422;11.100;2023-04-27T13:11:25;21.40;52.40
40556;DHT22;26250;45.422;11.100;2023-04-27T13:13:52;21.40;52.30
40556;DHT22;26250;45.422;11.100;2023-04-27T13:16:20;21.50;53.10
40556;DHT22;26250;45.422;11.100;2023-04-27T13:18:51;21.60;53.30
40556;DHT22;26250;45.422;11.100;2023-04-27T13:21:18;21.60;55.70
40556;DHT22;26250;45.422;11.100;2023-04-27T13:23:46;21.70;53.70
40556;DHT22;26250;45.422;11.100;2023-04-27T13:26:14;21.70;53.10
40556;DHT22;26250;45.422;11.100;2023-04-27T13:28:41;21.70;53.70
40556;DHT22;26250;45.422;11.100;2023-04-27T13:31:08;21.70;56.00
40556;DHT22;26250;45.422;11.100;2023-04-27T13:33:40;21.70;53.80
40556;DHT22;26250;45.422;11.100;2023-04-27T13:36:11;21.80;53.30
40556;DHT22;26250;45.422;11.100;2023-04-27T13:38:38;21.80;54.30
40556;DHT22;26250;45.422;11.100;2023-04-27T13:41:05;21.90;52.60
40556;DHT22;26250;45.422;11.100;2023-04-27T13:43:32;21.90;53.30
40556;DHT22;26250;45.422;11.100;2023-04-27T13:46:00;21.80;51.80
40556;DHT22;26250;45.422;11.100;2023-04-27T13:48:27;21.80;52.30
40556;DHT22;26250;45.422;11.100;2023-04-27T13:50:54;21.80;53.50
40556;DHT22;26250;45.422;11.100;2023-04-27T13:53:22;21.80;53.00
40556;DHT22;26250;45.422;11.100;2023-04-27T13:55:56;21.70;53.10
40556;DHT22;26250;45.422;11.100;2023-04-27T13:58:25;21.60;53.40
40556;DHT22;26250;45.422;11.100;2023-04-27T14:00:52;21.60;52.90
40556;DHT22;26250;45.422;11.100;2023-04-27T14:03:20;21.50;53.50
40556;DHT22;26250;45.422;11.100;2023-04-27T14:05:48;21.50;53.30
40556;DHT22;26250;45.422;11.100;2023-04-27T14:08:17;21.50;53.80
40556;DHT22;26250;45.422;11.100;2023-04-27T14:10:45;21.50;54.70
40556;DHT22;26250;45.422;11.100;2023-04-27T14:13:12;21.50;54.30
40556;DHT22;26250;45.422;11.100;2023-04-27T14:15:39;21.60;54.50
40556;DHT22;26250;45.422;11.100;2023-04-27T14:18:07;21.50;54.20
40556;DHT22;26250;45.422;11.100;2023-04-27T14:20:35;21.50;53.80
40556;DHT22;26250;45.422;11.100;2023-04-27T14:23:04;21.50;54.10
40556;DHT22;26250;45.422;11.100;2023-04-27T14:25:31;21.50;54.00
40556;DHT22;26250;45.422;11.100;2023-04-27T14:28:01;21.50;53.80
40556;DHT22;26250;45.422;11.100;2023-04-27T14:30:33;21.50;53.50
40556;DHT22;26250;45.422;11.100;2023-04-27T14:33:00;21.50;53.30
40556;DHT22;26250;45.422;11.100;2023-04-27T14:35:28;21.60;54.40
40556;DHT22;26250;45.422;11.100;2023-04-27T14:37:55;21.60;53.60
40556;DHT22;26250;45.422;11.100;2023-04-27T14:40:31;21.60;53.40
40556;DHT22;26250;45.422;11.100;2023-04-27T14:42:58;21.60;53.40
40556;DHT22;26250;45.422;11.100;2023-04-27T14:45:25;21.70;53.00
40556;DHT22;26250;45.422;11.100;2023-04-27T14:48:02;21.60;53.20
40556;DHT22;26250;45.422;11.100;2023-04-27T14:50:29;21.50;53.10
40556;DHT22;26250;45.422;11.100;2023-04-27T14:52:56;21.50;53.30
40556;DHT22;26250;45.422;11.100;2023-04-27T14:55:24;21.50;53.20
40556;DHT22;26250;45.422;11.100;2023-04-27T14:57:51;21.60;53.90
40556;DHT22;26250;45.422;11.100;2023-04-27T15:00:18;21.60;53.10
40556;DHT22;26250;45.422;11.100;2023-04-27T15:02:45;21.70;52.90
40556;DHT22;26250;45.422;11.100;2023-04-27T15:05:12;21.60;53.30
40556;DHT22;26250;45.422;11.100;2023-04-27T15:07:39;21.60;53.10
40556;DHT22;26250;45.422;11.100;2023-04-27T15:10:06;21.50;54.70
40556;DHT22;26250;45.422;11.100;2023-04-27T15:12:33;21.50;53.80
40556;DHT22;26250;45.422;11.100;2023-04-27T15:15:00;21.60;53.00
40556;DHT22;26250;45.422;11.100;2023-04-27T15:17:27;21.70;53.50
40556;DHT22;26250;45.422;11.100;2023-04-27T15:19:55;21.60;53.00
40556;DHT22;26250;45.422;11.100;2023-04-27T15:22:22;21.60;53.10
40556;DHT22;26250;45.422;11.100;2023-04-27T15:24:49;21.60;53.20
40556;DHT22;26250;45.422;11.100;2023-04-27T15:27:16;21.60;54.10
40556;DHT22;26250;45.422;11.100;2023-04-27T15:29:43;21.50;52.70
40556;DHT22;26250;45.422;11.100;2023-04-27T15:32:10;21.50;53.00
40556;DHT22;26250;45.422;11.100;2023-04-27T15:34:37;21.40;52.20
40556;DHT22;26250;45.422;11.100;2023-04-27T15:37:04;21.40;52.30
40556;DHT22;26250;45.422;11.100;2023-04-27T15:39:31;21.30;54.10
40556;DHT22;26250;45.422;11.100;2023-04-27T15:41:58;21.30;53.50
40556;DHT22;26250;45.422;11.100;2023-04-27T15:44:25;21.30;52.40
40556;DHT22;26250;45.422;11.100;2023-04-27T15:46:52;21.40;53.80
40556;DHT22;26250;45.422;11.100;2023-04-27T15:49:19;21.40;53.80
40556;DHT22;26250;45.422;11.100;2023-04-27T15:51:47;21.50;53.00
40556;DHT22;26250;45.422;11.100;2023-04-27T15:54:16;21.50;53.40
40556;DHT22;26250;45.422;11.100;2023-04-27T15:56:43;21.50;54.30
40556;DHT22;26250;45.422;11.100;2023-04-27T15:59:12;21.50;54.40
40556;DHT22;26250;45.422;11.100;2023-04-27T16:01:39;21.50;54.80
40556;DHT22;26250;45.422;11.100;2023-04-27T16:04:06;21.50;54.30
40556;DHT22;26250;45.422;11.100;2023-04-27T16:06:34;21.40;54.70
40556;DHT22;26250;45.422;11.100;2023-04-27T16:09:02;21.30;54.90
40556;DHT22;26250;45.422;11.100;2023-04-27T16:11:32;21.30;54.20
40556;DHT22;26250;45.422;11.100;2023-04-27T16:13:59;21.30;54.70
40556;DHT22;26250;45.422;11.100;2023-04-27T16:16:26;21.30;55.50
40556;DHT22;26250;45.422;11.100;2023-04-27T16:18:57;21.30;56.10
40556;DHT22;26250;45.422;11.100;2023-04-27T16:21:24;21.30;57.00
40556;DHT22;26250;45.422;11.100;2023-04-27T16:23:51;21.30;57.10
40556;DHT22;26250;45.422;11.100;2023-04-27T16:26:18;21.30;57.60
40556;DHT22;26250;45.422;11.100;2023-04-27T16:28:45;21.20;57.10
40556;DHT22;26250;45.422;11.100;2023-04-27T16:31:12;21.10;57.40
40556;DHT22;26250;45.422;11.100;2023-04-27T16:33:42;21.10;57.90
40556;DHT22;26250;45.422;11.100;2023-04-27T16:36:09;21.10;58.40
40556;DHT22;26250;45.422;11.100;2023-04-27T16:38:36;21.10;58.70
40556;DHT22;26250;45.422;11.100;2023-04-27T16:41:05;21.00;59.00
40556;DHT22;26250;45.422;11.100;2023-04-27T16:43:31;21.00;59.20
40556;DHT22;26250;45.422;11.100;2023-04-27T16:46:02;21.00;59.40
40556;DHT22;26250;45.422;11.100;2023-04-27T16:48:29;21.00;59.80
40556;DHT22;26250;45.422;11.100;2023-04-27T16:50:56;21.00;59.80
40556;DHT22;26250;45.422;11.100;2023-04-27T16:53:25;21.00;59.90
40556;DHT22;26250;45.422;11.100;2023-04-27T16:55:52;21.00;60.70
40556;DHT22;26250;45.422;11.100;2023-04-27T16:58:19;20.90;60.30
40556;DHT22;26250;45.422;11.100;2023-04-27T17:00:46;21.00;60.80
40556;DHT22;26250;45.422;11.100;2023-04-27T17:03:13;20.90;60.50
40556;DHT22;26250;45.422;11.100;2023-04-27T17:05:40;20.90;60.70
40556;DHT22;26250;45.422;11.100;2023-04-27T17:08:07;20.90;60.90
40556;DHT22;26250;45.422;11.100;2023-04-27T17:10:34;20.80;61.20
40556;DHT22;26250;45.422;11.100;2023-04-27T17:13:05;20.70;61.40
40556;DHT22;26250;45.422;11.100;2023-04-27T17:15:33;20.70;61.90
40556;DHT22;26250;45.422;11.100;2023-04-27T17:18:03;20.80;61.20
40556;DHT22;26250;45.422;11.100;2023-04-27T17:20:33;20.70;60.50
40556;DHT22;26250;45.422;11.100;2023-04-27T17:23:03;20.60;60.80
40556;DHT22;26250;45.422;11.100;2023-04-27T17:25:29;20.60;61.10
40556;DHT22;26250;45.422;11.100;2023-04-27T17:27:56;20.50;61.70
40556;DHT22;26250;45.422;11.100;2023-04-27T17:30:26;20.60;61.70
40556;DHT22;26250;45.422;11.100;2023-04-27T17:32:53;20.60;61.90
40556;DHT22;26250;45.422;11.100;2023-04-27T17:35:20;20.60;61.90
40556;DHT22;26250;45.422;11.100;2023-04-27T17:37:47;20.60;62.40
40556;DHT22;26250;45.422;11.100;2023-04-27T17:40:14;20.50;61.50
40556;DHT22;26250;45.422;11.100;2023-04-27T17:42:46;20.40;60.40
40556;DHT22;26250;45.422;11.100;2023-04-27T17:45:13;20.30;60.20
40556;DHT22;26250;45.422;11.100;2023-04-27T17:47:40;20.30;59.80
40556;DHT22;26250;45.422;11.100;2023-04-27T17:50:08;20.20;59.70
40556;DHT22;26250;45.422;11.100;2023-04-27T17:52:35;20.20;60.10
40556;DHT22;26250;45.422;11.100;2023-04-27T17:55:02;20.00;59.90
40556;DHT22;26250;45.422;11.100;2023-04-27T17:57:29;20.00;60.00
40556;DHT22;26250;45.422;11.100;2023-04-27T17:59:55;19.90;60.00
40556;DHT22;26250;45.422;11.100;2023-04-27T18:02:22;19.80;59.80
40556;DHT22;26250;45.422;11.100;2023-04-27T18:04:49;19.80;59.80
40556;DHT22;26250;45.422;11.100;2023-04-27T18:07:16;19.70;59.70
40556;DHT22;26250;45.422;11.100;2023-04-27T18:09:44;19.60;60.10
40556;DHT22;26250;45.422;11.100;2023-04-27T18:12:11;19.60;60.00
40556;DHT22;26250;45.422;11.100;2023-04-27T18:14:38;19.50;59.90
40556;DHT22;26250;45.422;11.100;2023-04-27T18:17:05;19.40;60.30
40556;DHT22;26250;45.422;11.100;2023-04-27T18:19:32;19.40;61.40
40556;DHT22;26250;45.422;11.100;2023-04-27T18:21:59;19.30;61.20
40556;DHT22;26250;45.422;11.100;2023-04-27T18:24:28;19.30;61.40
40556;DHT22;26250;45.422;11.100;2023-04-27T18:26:55;19.30;61.70
40556;DHT22;26250;45.422;11.100;2023-04-27T18:29:23;19.10;61.60
40556;DHT22;26250;45.422;11.100;2023-04-27T18:31:51;19.10;61.20
40556;DHT22;26250;45.422;11.100;2023-04-27T18:34:19;19.00;61.60
40556;DHT22;26250;45.422;11.100;2023-04-27T18:36:46;19.00;60.30
40556;DHT22;26250;45.422;11.100;2023-04-27T18:39:17;18.90;60.60
40556;DHT22;26250;45.422;11.100;2023-04-27T18:41:45;18.90;62.00
40556;DHT22;26250;45.422;11.100;2023-04-27T18:44:12;18.90;65.90
40556;DHT22;26250;45.422;11.100;2023-04-27T18:46:41;18.70;65.30
40556;DHT22;26250;45.422;11.100;2023-04-27T18:49:08;18.70;65.70
40556;DHT22;26250;45.422;11.100;2023-04-27T18:51:34;18.70;64.80
40556;DHT22;26250;45.422;11.100;2023-04-27T18:54:01;18.60;64.60
40556;DHT22;26250;45.422;11.100;2023-04-27T18:56:32;18.50;65.70
40556;DHT22;26250;45.422;11.100;2023-04-27T18:58:59;18.60;65.10
40556;DHT22;26250;45.422;11.100;2023-04-27T19:01:27;18.50;65.00
40556;DHT22;26250;45.422;11.100;2023-04-27T19:03:57;18.30;64.30
40556;DHT22;26250;45.422;11.100;2023-04-27T19:06:24;18.30;63.30
40556;DHT22;26250;45.422;11.100;2023-04-27T19:08:52;18.20;62.60
40556;DHT22;26250;45.422;11.100;2023-04-27T19:11:18;18.20;62.60
40556;DHT22;26250;45.422;11.100;2023-04-27T19:13:49;18.10;62.70
40556;DHT22;26250;45.422;11.100;2023-04-27T19:16:16;18.10;62.40
40556;DHT22;26250;45.422;11.100;2023-04-27T19:18:43;18.10;62.50
40556;DHT22;26250;45.422;11.100;2023-04-27T19:21:10;18.00;62.80
40556;DHT22;26250;45.422;11.100;2023-04-27T19:23:38;17.90;62.50
40556;DHT22;26250;45.422;11.100;2023-04-27T19:26:05;17.80;63.30
40556;DHT22;26250;45.422;11.100;2023-04-27T19:28:39;17.80;62.90
40556;DHT22;26250;45.422;11.100;2023-04-27T19:31:06;17.70;62.40
40556;DHT22;26250;45.422;11.100;2023-04-27T19:33:33;17.70;62.20
40556;DHT22;26250;45.422;11.100;2023-04-27T19:36:00;17.70;62.50
40556;DHT22;26250;45.422;11.100;2023-04-27T19:38:27;17.60;62.70
40556;DHT22;26250;45.422;11.100;2023-04-27T19:40:54;17.70;62.20
40556;DHT22;26250;45.422;11.100;2023-04-27T19:43:20;17.60;62.60
40556;DHT22;26250;45.422;11.100;2023-04-27T19:45:47;17.60;62.70
40556;DHT22;26250;45.422;11.100;2023-04-27T19:48:15;17.60;63.50
40556;DHT22;26250;45.422;11.100;2023-04-27T19:50:42;17.60;64.70
40556;DHT22;26250;45.422;11.100;2023-04-27T19:53:09;17.60;66.20
40556;DHT22;26250;45.422;11.100;2023-04-27T19:55:36;17.30;66.00
40556;DHT22;26250;45.422;11.100;2023-04-27T19:58:05;17.30;66.90
40556;DHT22;26250;45.422;11.100;2023-04-27T20:00:32;17.20;68.00
40556;DHT22;26250;45.422;11.100;2023-04-27T20:02:59;17.20;67.90
